Weather observations for the past three days for
Valdez 2
Metric (Imperial)
Date Time (akdt) Wind (kph) Vis. (km) Weather Sky Cond. Temperature (ºC) Relative Humidity Wind Chill (°C) Heat Index (°C) Pressure Precipitation (cm)
Air Dwpt 6 hour altimeter (cm) sea level (mb) 1 hr 3 hr 6 hr
Max. Min.
03 23:56 E 7 16.09 Fair CLR 6.7 5 89% 6 76.81 1023.9
03 22:56 Calm 16.09 Fair CLR 8.3 5 80% 76.81 1023.7
03 21:56 E 9 16.09 Partly Cloudy SCT080 SCT150 8.9 5 17.8 8.9 77% 8 76.78 1023.6
03 20:56 E 7 16.09 Mostly Cloudy FEW070 SCT080 BKN120 11.7 6.7 72% 76.76 1023.3
03 19:56 E 6 14.48 Mostly Cloudy FEW080 BKN100 14.4 7.2 62% 76.76 1023.1
03 18:56 S 6 16.09 Mostly Cloudy BKN100 16.7 5 46% 76.76 1023.0
03 17:56 Calm 16.09 Partly Cloudy SCT100 SCT250 17.2 3.9 41% 76.73 1022.8
03 16:56 W 6 16.09 Partly Cloudy FEW100 FEW150 SCT300 15 3.9 48% 76.76 1023.0
03 15:56 W 7 16.09 Partly Cloudy SCT150 SCT300 17.8 3.3 17.8 10.6 38% 76.73 1022.7
03 14:56 Calm 16.09 Partly Cloudy FEW200 SCT300 16.1 2.8 41% 76.73 1023.0
03 13:56 SW 7 16.09 Partly Cloudy SCT200 SCT300 16.1 2.8 41% 76.73 1022.8
03 12:56 Calm 16.09 Mostly Cloudy FEW200 BKN300 14.4 2.8 46% 76.73 1022.7
03 11:56 W 11 16.09 Mostly Cloudy FEW200 BKN250 13.9 3.3 49% 76.73 1022.8
03 10:56 W 9 16.09 Mostly Cloudy BKN250 12.2 3.9 57% 76.71 1022.4
03 09:56 Calm 16.09 Mostly Cloudy SCT200 BKN300 10.6 3.3 10.6 3.3 61% 76.66 1021.9
03 08:56 E 6 16.09 Partly Cloudy FEW200 SCT300 7.8 3.3 73% 76.66 1021.7
03 07:56 E 9 16.09 Partly Cloudy FEW200 SCT300 4.4 3.3 93% 2 76.61 1021.3
03 06:56 NE 9 24.14 Partly Cloudy FEW200 SCT300 4 3 93% 2 76.56 0.0
03 05:56 N 7 16.09 Fair CLR 4.4 3.3 93% 3 76.56 1020.5
03 04:56 Calm 16.09 Fair CLR 5 3.3 89% 76.5 1019.6
03 03:56 SE 6 16.09 Fair CLR 5 3.9 13.3 4.4 93% 76.45 1019.2
03 01:56 E 7 16.09 Fair CLR 5.6 3.9 89% 4 76.38 1018.2
03 00:56 E 9 16.09 Fair CLR 7.8 3.3 73% 6 76.35 1017.8
02 23:56 Calm 16.09 Fair CLR 9.4 2.2 61% 76.33 1017.2
02 22:56 NE 7 16.09 Fair CLR 10.6 2.8 59% 76.25 1016.3
02 21:56 W 11 16.09 Fair CLR 12.2 2.8 20 11.1 53% 76.17 1015.3
02 20:56 Calm 16.09 A Few Clouds FEW200 FEW300 12.8 2.2 49% 76.12 1014.6
02 19:56 Calm 16.09 A Few Clouds FEW300 16.7 3.3 41% 76.1 1014.3
02 18:56 NW 9 16.09 A Few Clouds FEW300 19.4 -2.2 23% 76.05 1013.7
02 17:56 Calm 16.09 A Few Clouds FEW200 FEW300 19.4 -1.7 24% 76.02 1013.4
02 16:56 E 15 16.09 A Few Clouds FEW200 19.4 -1.7 24% 76 1012.9
02 15:56 E 15 16.09 A Few Clouds FEW200 19.4 -1.1 19.4 8.9 25% 75.95 1012.4
02 14:56 E 24 G 50 16.09 A Few Clouds FEW200 18.9 -0.6 27% 75.9 1011.6
02 13:56 E 39 G 56 16.09 A Few Clouds and Breezy FEW180 18.9 0 28% 75.84 1010.8
02 12:56 SW 11 16.09 A Few Clouds FEW100 14.4 5 53% 75.79 1010.1
02 11:56 SW 9 16.09 A Few Clouds FEW100 12.8 3.9 55% 75.74 1009.6
02 10:56 Calm 16.09 Fair CLR 11.1 4.4 64% 75.69 1009.0
02 09:56 Calm 16.09 Fair CLR 8.9 4.4 8.9 2.8 74% 75.67 1008.7
02 08:56 S 6 16.09 Fair CLR 6.7 5 89% 75.64 1008.2
02 07:56 E 6 16.09 A Few Clouds FEW300 3.3 3.3 100% 75.64 1008.2
02 06:56 Calm 16.09 Partly Cloudy FEW100 SCT300 2.8 2.8 100% 75.62 1007.8
02 05:56 NE 6 16.09 Fair CLR 3.9 3.9 100% 75.59 1007.4
02 04:56 E 6 16.09 Fair CLR 3.9 3.9 100% 75.57 1007.1
02 03:56 E 6 16.09 Fair CLR 4.4 4.4 11.7 3.9 100% 75.57 1007.1
02 02:56 E 7 16.09 Fair CLR 5 5 100% 4 75.57 1007.3
02 01:56 E 6 16.09 Fair CLR 5 5 100% 75.57 1007.1
02 00:56 Calm 16.09 Fair CLR 6.7 4.4 85% 75.54 1007.0
01 23:56 E 7 16.09 Fair CLR 7.8 5 83% 7 75.54 1007.0
01 22:56 Calm 16.09 A Few Clouds FEW200 8.9 5 77% 75.54 1006.6
01 21:56 Calm 16.09 A Few Clouds FEW200 10.6 4.4 19.4 10.6 66% 75.49 1006.1
01 20:56 Calm 16.09 A Few Clouds FEW200 12.2 5 62% 75.49 1006.0
01 19:56 N 6 16.09 A Few Clouds FEW200 15.6 6.7 56% 75.46 1005.6
01 18:56 NE 13 G 26 16.09 Fair CLR 18.9 1.7 32% 75.44 1005.4
01 17:56 NE 17 G 33 16.09 A Few Clouds FEW200 19.4 1.1 30% 75.44 1005.3
01 16:56 E 24 G 37 16.09 A Few Clouds FEW200 19.4 1.1 30% 75.44 1005.3
01 15:56 E 28 G 44 16.09 A Few Clouds FEW200 18.9 1.1 19.4 16.1 30% 75.44 1005.4
01 14:56 E 37 G 48 16.09 Fair and Breezy CLR 18.9 1.1 30% 75.44 1005.5
01 13:56 E 33 G 48 16.09 Fair and Breezy CLR 18.9 0.6 29% 75.46 1005.8
01 12:56 E 31 G 41 16.09 Fair CLR 18.3 0.6 31% 75.49 1005.9
01 11:56 E 33 G 46 16.09 Fair and Breezy CLR 17.8 0.6 32% 75.46 1005.9
01 10:56 E 26 G 43 16.09 Fair CLR 17.2 0 31% 75.46 1005.8
01 09:56 E 30 G 56 16.09 A Few Clouds FEW080 16.1 0 16.1 13.9 34% 75.46 1005.9
01 08:56 E 20 G 30 16.09 A Few Clouds FEW080 15.6 0 35% 75.49 1006.0
01 07:56 E 24 G 37 16.09 A Few Clouds FEW080 14.4 0 38% 75.49 1005.9
01 06:56 NE 22 G 43 16.09 A Few Clouds FEW080 15 -0.6 35% 75.41 1005.2
01 05:56 Vrbl 7 G 28 16.09 Fair CLR 15 -0.6 35% 75.44 1005.5
01 04:56 N 30 G 46 16.09 Fair CLR 15.6 -1.1 32% 75.39 1004.7
01 03:56 NE 17 G 37 16.09 Fair CLR 14.4 -0.6 15.6 7.8 36% 75.39 1004.7
01 02:56 E 24 G 37 16.09 Fair CLR 15 -0.6 35% 75.36 1004.4
01 01:56 NE 28 G 46 16.09 Fair CLR 14.4 0 38% 75.34 1004.0
01 00:56 Calm 16.09 Fair CLR 11.1 2.2 55% 75.31 1003.8
Date Time (akdt) Wind (kph) Vis. (km) Weather Sky Cond. Air Dwpt Max. Min. Relative Humidity Wind Chill (°C) Heat Index (°C) altimeter (cm) sea level (mb) 1 hr 3 hr 6 hr
6 hour
Temperature (ºC) Pressure Precipitation (cm)